createdAt,value
2024-04-09T00:01:38.386Z,99.90
2024-04-09T00:04:06.984Z,99.90
2024-04-09T00:06:37.711Z,99.90
2024-04-09T00:09:08.283Z,99.90
2024-04-09T00:11:38.256Z,99.90
2024-04-09T00:14:11.135Z,99.90
2024-04-09T00:16:44.846Z,99.90
2024-04-09T00:19:15.955Z,99.90
2024-04-09T00:21:47.124Z,99.90
2024-04-09T00:24:22.350Z,99.90
2024-04-09T00:26:50.435Z,99.90
2024-04-09T00:29:21.691Z,99.90
2024-04-09T00:31:52.564Z,99.90
2024-04-09T00:34:22.011Z,99.90
2024-04-09T00:36:55.835Z,99.90
2024-04-09T00:39:31.021Z,99.90
2024-04-09T00:41:58.700Z,99.90
2024-04-09T00:44:36.396Z,99.90
2024-04-09T00:47:06.505Z,99.90
2024-04-09T00:49:43.930Z,99.90
2024-04-09T00:52:14.611Z,99.90
2024-04-09T00:54:46.370Z,99.90
2024-04-09T00:57:23.546Z,99.90
2024-04-09T00:59:55.463Z,99.90
2024-04-09T01:02:32.927Z,99.90
2024-04-09T01:05:12.765Z,99.90
2024-04-09T01:07:42.321Z,99.90
2024-04-09T01:10:11.771Z,99.90
2024-04-09T01:12:39.280Z,99.90
2024-04-09T01:15:11.319Z,99.90
2024-04-09T01:17:48.674Z,99.90
2024-04-09T01:20:18.166Z,99.90
2024-04-09T01:22:54.477Z,99.90
2024-04-09T01:25:22.174Z,99.90
2024-04-09T01:27:50.765Z,99.90
2024-04-09T01:30:21.261Z,99.90
2024-04-09T01:32:53.515Z,99.90
2024-04-09T01:35:21.961Z,99.90
2024-04-09T01:37:52.545Z,99.90
2024-04-09T01:40:19.976Z,99.90
2024-04-09T01:42:47.316Z,99.90
2024-04-09T01:45:15.472Z,99.90
2024-04-09T01:47:44.548Z,99.90
2024-04-09T01:50:14.205Z,99.90
2024-04-09T01:52:51.236Z,99.90
2024-04-09T01:55:23.290Z,99.90
2024-04-09T01:57:56.966Z,99.90
2024-04-09T02:00:27.345Z,99.90
2024-04-09T02:02:57.799Z,99.90
2024-04-09T02:05:28.343Z,99.90
2024-04-09T02:07:57.308Z,99.90
2024-04-09T02:10:26.216Z,99.90
2024-04-09T02:12:58.192Z,99.90
2024-04-09T02:15:37.401Z,99.90
2024-04-09T02:18:05.173Z,99.90
2024-04-09T02:20:36.570Z,99.90
2024-04-09T02:23:05.375Z,99.90
2024-04-09T02:25:34.452Z,99.90
2024-04-09T02:28:03.740Z,99.90
2024-04-09T02:30:34.823Z,99.90
2024-04-09T02:33:15.301Z,99.90
2024-04-09T02:35:48.767Z,99.90
2024-04-09T02:38:18.887Z,99.90
2024-04-09T02:40:47.375Z,99.90
2024-04-09T02:43:14.678Z,99.90
2024-04-09T02:45:47.965Z,99.90
2024-04-09T02:48:18.327Z,99.90
2024-04-09T02:51:07.369Z,99.90
2024-04-09T02:53:36.664Z,99.90
2024-04-09T02:56:15.510Z,99.90
2024-04-09T02:58:45.820Z,99.90
2024-04-09T03:01:16.692Z,99.90
2024-04-09T03:03:47.015Z,99.90
2024-04-09T03:06:20.681Z,99.90
2024-04-09T03:08:52.186Z,99.90
2024-04-09T03:11:22.802Z,99.90
2024-04-09T03:13:51.672Z,99.90
2024-04-09T03:16:24.238Z,99.90
2024-04-09T03:18:55.515Z,99.90
2024-04-09T03:21:27.372Z,99.90
2024-04-09T03:23:56.116Z,99.90
2024-04-09T03:26:27.284Z,99.90
2024-04-09T03:28:56.113Z,99.90
2024-04-09T03:31:26.886Z,99.90
2024-04-09T03:33:58.258Z,99.90
2024-04-09T03:36:34.107Z,99.90
2024-04-09T03:39:01.959Z,99.90
2024-04-09T03:41:36.257Z,99.90
2024-04-09T03:44:12.457Z,99.90
2024-04-09T03:46:39.758Z,99.90
2024-04-09T03:49:09.528Z,99.90
2024-04-09T03:51:39.604Z,99.90
2024-04-09T03:54:10.745Z,99.90
2024-04-09T03:56:39.173Z,99.90
2024-04-09T03:59:09.502Z,99.90
2024-04-09T04:04:27.778Z,99.90
2024-04-09T04:06:56.321Z,99.90
2024-04-09T04:09:35.089Z,99.90
2024-04-09T04:12:03.959Z,99.90
2024-04-09T04:14:40.457Z,99.90
2024-04-09T04:17:10.945Z,99.90
2024-04-09T04:19:38.466Z,99.90
2024-04-09T04:22:05.742Z,99.90
2024-04-09T04:24:36.423Z,99.90
2024-04-09T04:27:03.864Z,99.90
2024-04-09T04:29:31.211Z,99.90
2024-04-09T04:32:02.345Z,99.90
2024-04-09T04:34:41.246Z,99.90
2024-04-09T04:37:13.003Z,99.90
2024-04-09T04:39:40.412Z,99.90
2024-04-09T04:42:11.438Z,99.90
2024-04-09T04:44:48.064Z,99.90
2024-04-09T04:47:16.054Z,99.90
2024-04-09T04:49:53.056Z,99.90
2024-04-09T04:52:24.106Z,99.90
2024-04-09T04:55:00.281Z,99.90
2024-04-09T04:57:40.700Z,99.90
2024-04-09T05:00:13.620Z,99.90
2024-04-09T05:02:43.269Z,99.90
2024-04-09T05:05:21.327Z,99.90
2024-04-09T05:08:02.344Z,99.90
2024-04-09T05:10:31.450Z,99.90
2024-04-09T05:13:01.338Z,99.90
2024-04-09T05:15:31.779Z,99.90
2024-04-09T05:18:01.180Z,99.90
2024-04-09T05:20:31.467Z,99.90
2024-04-09T05:23:02.892Z,99.90
2024-04-09T05:25:31.985Z,99.90
2024-04-09T05:28:04.822Z,99.90
2024-04-09T05:30:35.380Z,99.90
2024-04-09T05:33:05.995Z,99.90
2024-04-09T05:35:35.163Z,99.90
2024-04-09T05:38:04.754Z,99.90
2024-04-09T05:40:38.093Z,99.90
2024-04-09T05:43:09.425Z,99.90
2024-04-09T05:45:37.910Z,99.90
2024-04-09T05:48:06.784Z,99.90
2024-04-09T05:50:35.680Z,99.90
2024-04-09T05:53:06.182Z,99.90
2024-04-09T05:55:34.631Z,99.90
2024-04-09T05:58:08.921Z,99.90
2024-04-09T06:00:37.770Z,99.90
2024-04-09T06:03:07.822Z,99.90
2024-04-09T06:05:46.632Z,99.90
2024-04-09T06:08:15.092Z,99.90
2024-04-09T06:10:42.403Z,99.90
2024-04-09T06:13:11.771Z,99.90
2024-04-09T06:15:42.836Z,99.90
2024-04-09T06:18:13.344Z,99.90
2024-04-09T06:20:40.793Z,99.90
2024-04-09T06:23:08.104Z,99.90
2024-04-09T06:25:37.202Z,98.60
2024-04-09T06:28:04.924Z,99.30
2024-04-09T06:30:33.541Z,99.60
2024-04-09T06:33:01.387Z,98.80
2024-04-09T06:35:31.550Z,99.90
2024-04-09T06:38:01.175Z,99.90
2024-04-09T06:40:31.236Z,99.90
2024-04-09T06:43:00.456Z,99.90
2024-04-09T06:45:38.119Z,99.10
2024-04-09T06:48:07.316Z,99.00
2024-04-09T06:50:44.650Z,98.30
2024-04-09T06:53:22.329Z,99.90
2024-04-09T06:55:50.646Z,98.60
2024-04-09T06:58:20.637Z,99.50
2024-04-09T07:00:50.917Z,96.10
2024-04-09T07:03:18.828Z,96.30
2024-04-09T07:05:48.654Z,97.00
2024-04-09T07:08:17.298Z,97.80
2024-04-09T07:10:57.873Z,97.70
2024-04-09T07:13:29.407Z,98.30
2024-04-09T07:16:01.495Z,97.40
2024-04-09T07:18:30.146Z,96.80
2024-04-09T07:20:58.413Z,97.00
2024-04-09T07:23:28.162Z,97.40
2024-04-09T07:25:57.923Z,98.00
2024-04-09T07:28:28.563Z,98.80
2024-04-09T07:30:59.492Z,97.90
2024-04-09T07:33:27.273Z,96.40
2024-04-09T07:36:04.698Z,97.60
2024-04-09T07:38:34.209Z,97.90
2024-04-09T07:41:06.964Z,97.00
2024-04-09T07:43:37.018Z,96.30
2024-04-09T07:46:16.005Z,95.70
2024-04-09T07:48:44.558Z,95.10
2024-04-09T07:51:13.472Z,94.30
2024-04-09T07:53:43.562Z,94.80
2024-04-09T07:56:14.802Z,94.80
2024-04-09T07:58:44.737Z,95.60
2024-04-09T08:01:12.436Z,96.00
2024-04-09T08:03:41.459Z,95.20
2024-04-09T08:06:12.534Z,96.40
2024-04-09T08:08:54.981Z,95.80
2024-04-09T08:11:23.661Z,96.90
2024-04-09T08:13:52.506Z,96.20
2024-04-09T08:16:20.436Z,94.80
2024-04-09T08:18:54.907Z,95.30
2024-04-09T08:21:23.949Z,95.20
2024-04-09T08:23:51.379Z,95.50
2024-04-09T08:26:19.935Z,95.30
2024-04-09T08:28:59.361Z,95.60
2024-04-09T08:31:40.683Z,96.30
2024-04-09T08:34:10.370Z,95.90
2024-04-09T08:36:40.174Z,94.50
2024-04-09T08:39:09.646Z,94.30
2024-04-09T08:41:39.126Z,94.00
2024-04-09T08:44:10.009Z,94.20
2024-04-09T08:46:39.934Z,95.40
2024-04-09T08:49:10.888Z,95.20
2024-04-09T08:51:40.878Z,95.80
2024-04-09T08:54:09.032Z,95.50
2024-04-09T08:56:36.911Z,96.10
2024-04-09T08:59:06.612Z,96.00
2024-04-09T09:04:18.743Z,93.60
2024-04-09T09:06:47.745Z,94.80
2024-04-09T09:09:38.435Z,93.90
2024-04-09T09:12:09.486Z,93.90
2024-04-09T09:14:39.067Z,94.60
2024-04-09T09:17:14.676Z,94.50
2024-04-09T09:19:46.044Z,94.70
2024-04-09T09:22:17.229Z,93.90
2024-04-09T09:24:46.222Z,94.40
2024-04-09T09:27:14.715Z,94.20
2024-04-09T09:29:42.023Z,96.20
2024-04-09T09:32:15.173Z,95.40
2024-04-09T09:34:48.785Z,94.90
2024-04-09T09:37:19.350Z,94.10
2024-04-09T09:39:49.350Z,95.90
2024-04-09T09:42:19.418Z,95.30
2024-04-09T09:44:46.876Z,94.00
2024-04-09T09:47:20.395Z,95.90
2024-04-09T09:50:02.509Z,94.40
2024-04-09T09:52:46.527Z,93.70
2024-04-09T09:55:18.295Z,94.30
2024-04-09T09:58:10.030Z,93.50
2024-04-09T10:00:41.872Z,94.40
2024-04-09T10:03:10.894Z,95.20
2024-04-09T10:05:43.249Z,93.10
2024-04-09T10:08:31.668Z,93.50
2024-04-09T10:11:05.667Z,93.70
2024-04-09T10:13:34.576Z,93.70
2024-04-09T10:16:04.597Z,94.30
2024-04-09T10:18:43.706Z,93.20
2024-04-09T10:21:16.007Z,94.00
2024-04-09T10:23:48.051Z,93.10
2024-04-09T10:26:25.982Z,93.80
2024-04-09T10:29:07.625Z,93.20
2024-04-09T10:31:45.410Z,93.20
2024-04-09T10:34:30.767Z,93.40
2024-04-09T10:37:11.491Z,95.00
2024-04-09T10:39:47.660Z,93.30
2024-04-09T10:42:24.183Z,93.10
2024-04-09T10:44:54.407Z,91.90
2024-04-09T10:47:22.859Z,92.80
2024-04-09T10:49:52.811Z,92.80
2024-04-09T10:52:21.266Z,92.70
2024-04-09T10:54:53.012Z,92.00
2024-04-09T10:57:21.648Z,90.60
2024-04-09T11:00:01.017Z,90.70
2024-04-09T11:02:29.834Z,91.60
2024-04-09T11:05:02.124Z,91.30
2024-04-09T11:07:29.663Z,90.80
2024-04-09T11:09:58.889Z,91.30
2024-04-09T11:12:34.173Z,88.40
2024-04-09T11:15:05.508Z,87.30
2024-04-09T11:17:43.954Z,88.90
2024-04-09T11:20:16.739Z,88.30
2024-04-09T11:22:53.147Z,84.90
2024-04-09T11:25:22.673Z,87.40
2024-04-09T11:27:53.138Z,86.20
2024-04-09T11:30:33.535Z,83.50
2024-04-09T11:33:04.321Z,86.80
2024-04-09T11:35:41.649Z,86.70
2024-04-09T11:38:13.990Z,84.10
2024-04-09T11:40:43.077Z,80.10
2024-04-09T11:43:14.683Z,82.10
2024-04-09T11:45:42.867Z,81.00
2024-04-09T11:48:14.497Z,81.10
2024-04-09T11:50:44.878Z,82.80
2024-04-09T11:53:23.936Z,81.40
2024-04-09T11:55:56.303Z,80.20
2024-04-09T11:58:31.888Z,81.10
2024-04-09T12:00:59.437Z,81.20
2024-04-09T12:03:29.324Z,80.60
2024-04-09T12:06:02.939Z,79.20
2024-04-09T12:08:34.296Z,78.90
2024-04-09T12:11:04.546Z,80.60
2024-04-09T12:13:33.407Z,80.30
2024-04-09T12:16:04.078Z,77.20
2024-04-09T12:18:41.380Z,81.60
2024-04-09T12:21:18.531Z,78.60
2024-04-09T12:23:49.845Z,78.40
2024-04-09T12:26:27.593Z,78.60
2024-04-09T12:29:00.918Z,76.40
2024-04-09T12:31:30.272Z,77.70
2024-04-09T12:34:02.679Z,77.20
2024-04-09T12:36:31.639Z,77.70
2024-04-09T12:39:01.973Z,77.00
2024-04-09T12:41:33.133Z,79.10
2024-04-09T12:44:03.440Z,74.00
2024-04-09T12:46:34.525Z,74.40
2024-04-09T12:49:16.803Z,74.50
2024-04-09T12:51:55.446Z,73.00
2024-04-09T12:54:32.369Z,75.20
2024-04-09T12:57:02.655Z,71.70
2024-04-09T13:02:28.298Z,59.10
2024-04-09T13:05:07.857Z,61.60
2024-04-09T13:07:36.971Z,65.20
2024-04-09T13:10:14.116Z,58.80
2024-04-09T13:12:41.533Z,56.60
2024-04-09T13:17:43.018Z,56.40
2024-04-09T13:20:10.907Z,57.10
2024-04-09T13:22:38.126Z,56.80
2024-04-09T13:25:12.423Z,57.30
2024-04-09T13:27:49.508Z,57.00
2024-04-09T13:30:19.591Z,57.30
2024-04-09T13:32:51.071Z,57.30
2024-04-09T13:35:20.739Z,55.80
2024-04-09T13:37:51.851Z,55.60
2024-04-09T13:40:22.175Z,55.40
2024-04-09T13:42:50.721Z,58.00
2024-04-09T13:45:19.103Z,56.10
2024-04-09T13:47:49.594Z,54.30
2024-04-09T13:50:21.333Z,54.80
2024-04-09T13:52:50.480Z,54.40
2024-04-09T13:55:22.168Z,53.90
2024-04-09T13:57:56.977Z,56.30
2024-04-09T14:00:29.886Z,54.50
2024-04-09T14:02:58.766Z,55.40
2024-04-09T14:05:27.941Z,54.10
2024-04-09T14:07:56.405Z,54.60
2024-04-09T14:10:44.986Z,55.60
2024-04-09T14:13:20.629Z,53.40
2024-04-09T14:18:40.761Z,53.70
2024-04-09T14:21:10.048Z,53.90
2024-04-09T14:23:47.214Z,53.80
2024-04-09T14:26:14.508Z,55.00
2024-04-09T14:28:44.677Z,55.50
2024-04-09T14:31:26.025Z,56.20
2024-04-09T14:33:56.566Z,54.50
2024-04-09T14:36:29.444Z,55.40
2024-04-09T14:38:57.919Z,54.50
2024-04-09T14:41:27.229Z,54.30
2024-04-09T14:43:58.783Z,54.40
2024-04-09T14:46:38.379Z,55.80
2024-04-09T14:49:08.212Z,55.20
2024-04-09T14:51:37.415Z,54.50
2024-04-09T14:54:07.848Z,55.20
2024-04-09T14:56:40.145Z,54.90
2024-04-09T14:59:17.790Z,56.60
2024-04-09T15:01:47.861Z,55.10
2024-04-09T15:04:22.323Z,56.10
2024-04-09T15:06:52.866Z,55.50
2024-04-09T15:09:24.435Z,54.40
2024-04-09T15:11:53.004Z,55.00
2024-04-09T15:14:20.468Z,55.00
2024-04-09T15:16:49.967Z,55.00
2024-04-09T15:19:18.543Z,55.10
2024-04-09T15:21:45.880Z,54.40
2024-04-09T15:24:14.798Z,55.10
2024-04-09T15:26:46.271Z,54.40
2024-04-09T15:29:16.780Z,54.80
2024-04-09T15:31:47.331Z,55.10
2024-04-09T15:34:17.228Z,54.80
2024-04-09T15:36:49.320Z,55.00
2024-04-09T15:39:26.742Z,54.80
2024-04-09T15:41:54.047Z,55.80
2024-04-09T15:44:24.345Z,55.10
2024-04-09T15:46:52.747Z,56.20
2024-04-09T15:49:20.199Z,57.00
2024-04-09T15:51:50.341Z,56.20
2024-04-09T15:54:26.850Z,56.70
2024-04-09T15:56:56.385Z,56.50
2024-04-09T15:59:24.014Z,56.70
2024-04-09T16:01:54.351Z,56.60
2024-04-09T16:04:28.076Z,57.20
2024-04-09T16:06:58.427Z,58.40
2024-04-09T16:09:29.941Z,58.10
2024-04-09T16:11:59.657Z,57.80
2024-04-09T16:14:29.908Z,57.60
2024-04-09T16:17:07.415Z,58.60
2024-04-09T16:19:35.001Z,59.00
2024-04-09T16:22:08.781Z,57.50
2024-04-09T16:24:36.309Z,58.20
2024-04-09T16:27:06.310Z,58.30
2024-04-09T16:29:34.079Z,59.20
2024-04-09T16:32:04.798Z,58.70
2024-04-09T16:34:34.348Z,59.00
2024-04-09T16:37:04.768Z,59.10
2024-04-09T16:39:35.447Z,60.40
2024-04-09T16:42:04.450Z,61.10
2024-04-09T16:44:33.124Z,63.40
2024-04-09T16:47:09.414Z,61.60
2024-04-09T16:49:45.727Z,63.20
2024-04-09T16:52:20.919Z,63.90
2024-04-09T16:54:49.973Z,64.30
2024-04-09T16:57:29.760Z,65.10
2024-04-09T17:00:10.030Z,65.30
2024-04-09T17:02:38.745Z,66.20
2024-04-09T17:05:09.911Z,67.10
2024-04-09T17:07:37.425Z,67.70
2024-04-09T17:10:12.146Z,68.20
2024-04-09T17:12:42.975Z,69.50
2024-04-09T17:15:11.521Z,70.60
2024-04-09T17:17:39.155Z,71.30
2024-04-09T17:20:18.894Z,72.10
2024-04-09T17:22:56.855Z,72.60
2024-04-09T17:25:29.913Z,72.70
2024-04-09T17:27:58.527Z,73.10
2024-04-09T17:30:27.405Z,72.30
2024-04-09T17:32:55.001Z,72.60
2024-04-09T17:35:23.945Z,73.00
2024-04-09T17:37:53.787Z,73.20
2024-04-09T17:40:24.806Z,73.20
2024-04-09T17:43:03.013Z,74.30
2024-04-09T17:45:32.566Z,74.60
2024-04-09T17:48:01.694Z,74.00
2024-04-09T17:50:34.435Z,74.40
2024-04-09T17:53:05.570Z,74.20
2024-04-09T17:55:33.748Z,74.90
2024-04-09T17:58:04.763Z,75.00
2024-04-09T18:00:33.744Z,75.20
2024-04-09T18:03:03.893Z,74.80
2024-04-09T18:05:32.200Z,75.40
2024-04-09T18:08:10.262Z,75.20
2024-04-09T18:10:38.001Z,75.50
2024-04-09T18:13:09.024Z,75.70
2024-04-09T18:15:38.212Z,75.90
2024-04-09T18:18:09.961Z,76.40
2024-04-09T18:20:39.672Z,76.80
2024-04-09T18:23:07.296Z,77.40
2024-04-09T18:25:36.063Z,77.10
2024-04-09T18:28:06.458Z,78.20
2024-04-09T18:30:37.910Z,77.70
2024-04-09T18:33:07.800Z,77.80
2024-04-09T18:35:43.001Z,77.40
2024-04-09T18:38:11.814Z,77.40
2024-04-09T18:40:40.147Z,77.90
2024-04-09T18:43:16.568Z,78.20
2024-04-09T18:45:45.650Z,78.10
2024-04-09T18:48:15.854Z,78.30
2024-04-09T18:50:47.187Z,79.20
2024-04-09T18:53:17.901Z,79.00
2024-04-09T18:55:47.755Z,79.30
2024-04-09T18:58:22.814Z,79.20
2024-04-09T19:00:53.979Z,79.50
2024-04-09T19:03:21.457Z,79.60
2024-04-09T19:05:50.649Z,79.70
2024-04-09T19:08:19.760Z,79.30
2024-04-09T19:10:47.145Z,79.40
2024-04-09T19:13:18.248Z,79.50
2024-04-09T19:15:47.349Z,79.80
2024-04-09T19:18:20.380Z,79.60
2024-04-09T19:20:47.734Z,80.60
2024-04-09T19:23:17.845Z,80.10
2024-04-09T19:25:49.619Z,80.20
2024-04-09T19:28:19.469Z,80.20
2024-04-09T19:30:50.147Z,80.20
2024-04-09T19:33:19.462Z,80.50
2024-04-09T19:35:48.491Z,81.00
2024-04-09T19:38:18.553Z,81.50
2024-04-09T19:40:47.447Z,81.50
2024-04-09T19:43:33.877Z,81.40
2024-04-09T19:46:11.653Z,80.90
2024-04-09T19:48:41.932Z,80.90
2024-04-09T19:51:09.389Z,81.00
2024-04-09T19:53:50.216Z,80.60
2024-04-09T19:56:22.712Z,80.40
2024-04-09T19:58:51.422Z,80.20
2024-04-09T20:01:21.851Z,80.70
2024-04-09T20:03:53.813Z,80.30
2024-04-09T20:06:23.795Z,80.60
2024-04-09T20:09:00.585Z,80.90
2024-04-09T20:11:33.405Z,81.00
2024-04-09T20:14:04.111Z,81.50
2024-04-09T20:16:57.934Z,81.00
2024-04-09T20:19:29.108Z,80.70
2024-04-09T20:22:00.161Z,81.10
2024-04-09T20:24:30.494Z,81.30
2024-04-09T20:26:58.212Z,81.50
2024-04-09T20:29:27.440Z,81.60
2024-04-09T20:31:57.943Z,81.60
2024-04-09T20:34:35.723Z,81.20
2024-04-09T20:37:03.406Z,81.20
2024-04-09T20:39:34.524Z,81.20
2024-04-09T20:42:06.227Z,81.10
2024-04-09T20:44:39.248Z,81.20
2024-04-09T20:47:09.156Z,81.00
2024-04-09T20:49:43.165Z,81.10
2024-04-09T20:52:14.394Z,81.40
2024-04-09T20:54:44.159Z,81.40
2024-04-09T20:57:13.306Z,82.20
2024-04-09T20:59:45.186Z,83.10
2024-04-09T21:02:16.154Z,84.30
2024-04-09T21:04:45.615Z,84.50
2024-04-09T21:07:14.418Z,84.70
2024-04-09T21:09:44.890Z,84.60
2024-04-09T21:12:12.737Z,85.10
2024-04-09T21:14:40.041Z,84.80
2024-04-09T21:17:08.684Z,84.90
2024-04-09T21:19:39.035Z,84.50
2024-04-09T21:22:07.587Z,84.70
2024-04-09T21:24:35.081Z,85.40
2024-04-09T21:27:05.460Z,85.90
2024-04-09T21:29:34.249Z,86.40
2024-04-09T21:32:06.227Z,86.30
2024-04-09T21:34:37.257Z,86.30
2024-04-09T21:37:06.474Z,86.40
2024-04-09T21:39:35.603Z,86.80
2024-04-09T21:42:06.196Z,87.10
2024-04-09T21:44:36.501Z,87.30
2024-04-09T21:47:05.271Z,87.50
2024-04-09T21:49:32.668Z,87.50
2024-04-09T21:52:08.773Z,88.00
2024-04-09T21:54:36.140Z,88.10
2024-04-09T21:57:05.455Z,88.60
2024-04-09T21:59:33.966Z,88.90
2024-04-09T22:02:06.739Z,89.40
2024-04-09T22:04:35.274Z,89.60
2024-04-09T22:07:15.723Z,89.80
2024-04-09T22:09:47.034Z,89.40
2024-04-09T22:12:21.329Z,89.00
2024-04-09T22:14:50.374Z,88.70
2024-04-09T22:17:18.474Z,88.30
2024-04-09T22:19:50.596Z,88.20
2024-04-09T22:22:18.007Z,87.80
2024-04-09T22:24:46.398Z,88.10
2024-04-09T22:27:23.829Z,87.80
2024-04-09T22:30:00.014Z,88.30
2024-04-09T22:32:29.300Z,88.20
2024-04-09T22:35:00.399Z,88.40
2024-04-09T22:37:37.262Z,88.90
2024-04-09T22:40:06.434Z,88.60
2024-04-09T22:42:37.226Z,88.90
2024-04-09T22:45:05.012Z,89.40
2024-04-09T22:47:36.148Z,89.80
2024-04-09T22:50:26.144Z,90.10
2024-04-09T22:52:53.589Z,90.30
2024-04-09T22:55:22.310Z,90.50
2024-04-09T22:57:51.108Z,90.50
2024-04-09T23:00:21.848Z,90.40
2024-04-09T23:02:52.749Z,90.40
2024-04-09T23:05:20.705Z,90.20
2024-04-09T23:07:50.627Z,90.50
2024-04-09T23:10:20.167Z,90.50
2024-04-09T23:12:51.192Z,90.50
2024-04-09T23:15:22.272Z,90.70
2024-04-09T23:17:49.913Z,90.60
2024-04-09T23:20:19.847Z,90.80
2024-04-09T23:22:58.086Z,91.00
2024-04-09T23:25:26.939Z,90.90
2024-04-09T23:27:55.356Z,91.00
2024-04-09T23:30:27.125Z,91.20
2024-04-09T23:32:58.288Z,91.40
2024-04-09T23:35:29.196Z,91.30
2024-04-09T23:38:01.041Z,91.40
2024-04-09T23:40:30.359Z,91.50
2024-04-09T23:43:00.671Z,91.70
2024-04-09T23:45:30.907Z,91.40
2024-04-09T23:47:58.326Z,91.50
2024-04-09T23:50:29.736Z,91.40
2024-04-09T23:53:01.006Z,91.40
2024-04-09T23:55:38.622Z,91.40
2024-04-09T23:58:08.427Z,91.60
